Time;durP1;ratioP1;P1;durP2;ratioP2;P2;SDS_P1;SDS_P2;PMS_P1;PMS_P2;Temp;Humidity;BMP_temperature;BMP_pressure;BME280_temperature;BME280_humidity;BME280_pressure;Samples;Min_cycle;Max_cycle;Signal;HPM_P1;HPM_P2
2023/04/05 00:00:44;;;;;;;5.63;1.90;;;;;;;5.34;49.57;102241.25;4928491;29;20079;-50
2023/04/05 00:03:10;;;;;;;6.97;2.70;;;;;;;5.30;49.19;102231.72;4931538;29;20150;-48
2023/04/05 00:05:35;;;;;;;3.33;1.50;;;;;;;5.28;49.34;102228.25;4930506;29;20173;-50
2023/04/05 00:08:03;;;;;;;3.30;1.45;;;;;;;5.32;49.11;102229.94;4933380;29;20422;-51
2023/04/05 00:10:30;;;;;;;4.53;1.00;;;;;;;5.35;48.87;102232.53;4925880;29;20117;-48
2023/04/05 00:12:56;;;;;;;2.42;1.05;;;;;;;5.34;48.29;102222.97;4931078;29;20050;-51
2023/04/05 00:15:22;;;;;;;2.58;0.95;;;;;;;5.34;48.82;102225.56;4927992;29;20055;-47
2023/04/05 00:17:48;;;;;;;1.92;1.02;;;;;;;5.33;48.26;102222.09;4924248;29;20049;-51
2023/04/05 00:20:13;;;;;;;4.47;2.03;;;;;;;5.33;48.32;102224.69;4931231;29;20069;-48
2023/04/05 00:22:42;;;;;;;2.70;0.85;;;;;;;5.38;48.19;102223.78;4929935;29;20119;-48
2023/04/05 00:25:08;;;;;;;3.47;0.85;;;;;;;5.36;48.31;102220.31;4931765;29;20065;-47
2023/04/05 00:27:33;;;;;;;4.07;0.75;;;;;;;5.37;48.16;102211.63;4932347;29;20113;-48
2023/04/05 00:29:59;;;;;;;2.40;1.02;;;;;;;5.44;48.20;102221.97;4930010;29;20511;-49
2023/04/05 00:32:25;;;;;;;2.25;1.02;;;;;;;5.47;47.89;102215.81;4929043;29;20079;-47
2023/04/05 00:34:50;;;;;;;3.63;1.48;;;;;;;5.48;47.79;102210.59;4931437;29;20068;-48
2023/04/05 00:37:16;;;;;;;3.33;1.40;;;;;;;5.53;48.12;102207.94;4927027;29;20062;-48
2023/04/05 00:39:41;;;;;;;2.42;1.13;;;;;;;5.55;47.69;102206.16;4930362;29;20106;-48
2023/04/05 00:42:08;;;;;;;3.83;1.33;;;;;;;5.55;47.97;102205.28;4924136;29;20464;-47
2023/04/05 00:44:33;;;;;;;4.80;1.42;;;;;;;5.55;48.11;102206.16;4932372;29;20050;-48
2023/04/05 00:47:06;;;;;;;4.85;1.20;;;;;;;5.53;48.10;102207.94;4925361;29;20061;-48
2023/04/05 00:49:33;;;;;;;1.33;0.85;;;;;;;5.50;48.14;102202.75;4929474;29;20549;-48
2023/04/05 00:51:59;;;;;;;4.85;1.63;;;;;;;5.50;48.39;102202.75;4920409;28;20044;-47
2023/04/05 00:54:29;;;;;;;5.82;2.30;;;;;;;5.53;48.26;102207.94;4927944;29;20065;-48
2023/04/05 00:56:56;;;;;;;3.58;1.63;;;;;;;5.52;48.52;102200.97;4923682;29;20417;-48
2023/04/05 00:59:22;;;;;;;5.38;1.20;;;;;;;5.53;47.98;102196.59;4932213;29;20445;-47
2023/04/05 01:01:59;;;;;;;4.40;1.40;;;;;;;5.52;48.08;102197.50;4930127;29;20052;-47
2023/04/05 01:04:26;;;;;;;2.50;1.13;;;;;;;5.53;48.14;102186.16;4927579;29;20220;-48
2023/04/05 01:06:58;;;;;;;2.22;1.35;;;;;;;5.55;47.86;102195.72;4930386;29;20043;-47
2023/04/05 01:09:49;;;;;;;3.75;1.15;;;;;;;5.57;47.96;102204.41;4928707;29;20047;-47
2023/04/05 01:12:19;;;;;;;3.17;1.73;;;;;;;5.56;47.91;102201.78;4934188;29;20068;-47
2023/04/05 01:14:50;;;;;;;4.53;1.17;;;;;;;5.57;47.90;102204.41;4930956;29;20076;-48
2023/04/05 01:17:20;;;;;;;3.08;1.20;;;;;;;5.55;47.85;102200.06;4928653;29;20046;-48
2023/04/05 01:19:47;;;;;;;2.42;0.90;;;;;;;5.56;48.21;102188.72;4926902;29;20111;-49
2023/04/05 01:22:25;;;;;;;1.73;0.82;;;;;;;5.54;47.97;102193.09;4932978;29;20448;-49
2023/04/05 01:25:13;;;;;;;4.15;1.13;;;;;;;5.52;48.22;102187.91;4929370;29;20060;-48
2023/04/05 01:27:57;;;;;;;4.43;1.13;;;;;;;5.48;48.47;102181.00;4933045;29;20055;-48
2023/04/05 01:30:38;;;;;;;5.68;1.45;;;;;;;5.40;48.28;102175.88;4933283;29;20041;-50
2023/04/05 01:33:32;;;;;;;2.00;1.25;;;;;;;5.37;48.92;102175.06;4931565;29;20077;-48
2023/04/05 01:36:03;;;;;;;3.63;1.10;;;;;;;5.38;48.48;102177.66;4936110;29;20375;-48
2023/04/05 01:38:30;;;;;;;2.40;1.00;;;;;;;5.38;48.78;102179.41;4933780;29;20052;-49
2023/04/05 01:40:56;;;;;;;4.35;1.30;;;;;;;5.36;48.83;102173.34;4931898;29;20173;-49
2023/04/05 01:43:21;;;;;;;10.70;1.48;;;;;;;5.39;48.65;102166.31;4929702;29;20087;-48
2023/04/05 01:45:47;;;;;;;4.32;1.33;;;;;;;5.35;48.86;102172.50;4930925;29;20112;-50
2023/04/05 01:48:13;;;;;;;4.68;1.25;;;;;;;5.34;49.02;102170.75;4927232;29;20058;-49
2023/04/05 01:50:39;;;;;;;4.78;1.30;;;;;;;5.30;49.00;102164.69;4930914;29;20049;-48
2023/04/05 01:53:06;;;;;;;4.63;1.40;;;;;;;5.27;49.07;102164.75;4925583;29;20526;-49
2023/04/05 01:55:32;;;;;;;3.05;1.58;;;;;;;5.24;49.23;102170.00;4925902;29;20042;-50
2023/04/05 01:57:57;;;;;;;4.97;2.65;;;;;;;5.19;49.55;102161.34;4929508;29;20109;-49
2023/04/05 02:00:23;;;;;;;4.53;1.67;;;;;;;5.24;49.51;102169.13;4927354;29;20108;-48
2023/04/05 02:02:49;;;;;;;2.38;1.15;;;;;;;5.23;49.49;102172.63;4926368;29;20119;-48
2023/04/05 02:05:14;;;;;;;2.90;1.33;;;;;;;5.21;49.70;102177.03;4925640;29;20157;-49
2023/04/05 02:07:40;;;;;;;4.05;1.70;;;;;;;5.15;49.97;102170.97;4935383;28;20137;-48
2023/04/05 02:10:06;;;;;;;6.55;1.83;;;;;;;5.07;50.64;102172.81;4929930;29;20081;-48
2023/04/05 02:12:32;;;;;;;3.80;1.63;;;;;;;5.05;51.15;102169.38;4928087;29;20595;-48
2023/04/05 02:14:57;;;;;;;5.18;2.00;;;;;;;5.04;51.43;102167.66;4931193;29;20037;-47
2023/04/05 02:17:23;;;;;;;4.30;1.85;;;;;;;5.02;51.61;102167.63;4929030;29;20502;-48
2023/04/05 02:19:51;;;;;;;5.50;2.10;;;;;;;5.03;51.85;102161.53;4930383;29;20057;-50
2023/04/05 02:22:17;;;;;;;2.70;1.30;;;;;;;5.00;51.69;102155.50;4932962;29;20053;-48
2023/04/05 02:24:43;;;;;;;8.60;1.73;;;;;;;4.97;51.98;102165.97;4925714;29;20426;-47
2023/04/05 02:27:09;;;;;;;6.07;2.03;;;;;;;4.96;51.98;102161.63;4930819;29;20052;-48
2023/04/05 02:29:35;;;;;;;4.43;1.48;;;;;;;4.99;52.25;102162.44;4936466;29;20067;-48
2023/04/05 02:32:00;;;;;;;3.50;1.92;;;;;;;4.97;52.51;102160.75;4933004;29;20051;-48
2023/04/05 02:34:26;;;;;;;3.22;1.45;;;;;;;4.97;52.11;102158.16;4935262;28;20073;-48
2023/04/05 02:36:52;;;;;;;7.90;2.00;;;;;;;4.98;52.35;102152.03;4929600;29;20056;-47
2023/04/05 02:39:18;;;;;;;5.47;1.77;;;;;;;4.97;52.55;102158.16;4929566;29;20053;-49
2023/04/05 02:41:44;;;;;;;5.10;1.92;;;;;;;4.95;52.48;102152.06;4932410;28;20047;-47
2023/04/05 02:44:10;;;;;;;2.95;1.70;;;;;;;4.92;52.89;102162.53;4930336;29;20098;-49
2023/04/05 02:46:35;;;;;;;5.05;1.83;;;;;;;4.87;53.01;102160.00;4929464;29;20145;-48
2023/04/05 02:49:01;;;;;;;10.05;2.00;;;;;;;4.90;52.80;102159.97;4932111;29;20502;-48
2023/04/05 02:51:26;;;;;;;9.40;2.40;;;;;;;4.91;53.05;102161.69;4932396;29;20047;-47
2023/04/05 02:53:52;;;;;;;5.68;2.13;;;;;;;4.94;53.09;102161.66;4921507;29;20062;-48
2023/04/05 02:56:17;;;;;;;5.93;2.40;;;;;;;4.96;53.12;102156.41;4932087;29;20539;-48
2023/04/05 02:58:43;;;;;;;9.07;2.50;;;;;;;4.95;53.38;102155.56;4934310;29;20205;-48
2023/04/05 03:01:09;;;;;;;5.10;1.90;;;;;;;4.97;53.32;102156.41;4928306;29;20582;-48
2023/04/05 03:03:34;;;;;;;4.13;1.90;;;;;;;4.96;53.68;102159.91;4933027;29;20067;-48
2023/04/05 03:06:09;;;;;;;6.88;2.28;;;;;;;4.96;53.68;102159.91;4933181;29;20057;-47
2023/04/05 03:08:42;;;;;;;6.57;2.40;;;;;;;4.97;53.49;102156.41;4926584;29;20409;-49
2023/04/05 03:11:09;;;;;;;10.82;2.70;;;;;;;4.99;53.62;102153.78;4929218;29;20050;-49
2023/04/05 03:13:35;;;;;;;8.32;3.28;;;;;;;5.03;53.49;102152.88;4926836;29;20062;-48
2023/04/05 03:16:01;;;;;;;7.90;2.28;;;;;;;5.06;53.64;102137.19;4929729;29;20046;-48
2023/04/05 03:18:28;;;;;;;4.15;2.03;;;;;;;5.03;53.84;102145.03;4931233;29;20539;-48
2023/04/05 03:20:57;;;;;;;7.05;2.38;;;;;;;5.03;53.76;102145.88;4931321;29;20093;-48
2023/04/05 03:23:28;;;;;;;7.72;2.63;;;;;;;5.02;54.18;102153.75;4930852;29;20057;-49
2023/04/05 03:25:56;;;;;;;6.95;2.25;;;;;;;5.03;54.04;102150.25;4930465;29;20378;-48
2023/04/05 03:28:23;;;;;;;7.40;2.72;;;;;;;5.00;53.92;102145.06;4932765;29;20054;-47
2023/04/05 03:30:49;;;;;;;4.32;1.92;;;;;;;4.98;53.94;102142.50;4930820;29;20037;-48
2023/04/05 03:33:14;;;;;;;7.70;3.20;;;;;;;4.96;54.18;102145.97;4927160;29;20475;-48
2023/04/05 03:35:40;;;;;;;5.95;2.83;;;;;;;4.96;54.20;102140.75;4924623;29;20121;-49
2023/04/05 03:38:06;;;;;;;8.55;3.00;;;;;;;4.96;54.39;102143.38;4932279;29;20145;-48
2023/04/05 03:40:32;;;;;;;7.63;2.88;;;;;;;4.97;54.29;102145.09;4933431;29;20053;-48
2023/04/05 03:42:57;;;;;;;6.20;3.08;;;;;;;4.95;54.32;102145.13;4933874;29;20852;-48
2023/04/05 03:45:23;;;;;;;5.13;2.40;;;;;;;4.95;54.48;102149.47;4926172;28;20125;-47
2023/04/05 03:47:48;;;;;;;6.38;2.95;;;;;;;4.97;54.75;102155.53;4926322;29;20508;-48
2023/04/05 03:50:14;;;;;;;8.93;3.97;;;;;;;5.01;54.59;102152.03;4923204;29;20058;-47
2023/04/05 03:52:40;;;;;;;6.28;3.08;;;;;;;5.03;54.62;102139.81;4924749;29;20078;-47
2023/04/05 03:55:06;;;;;;;10.55;3.90;;;;;;;4.99;54.82;102141.59;4930339;29;20059;-48
2023/04/05 03:57:32;;;;;;;7.55;3.75;;;;;;;5.00;55.03;102140.69;4930109;29;20572;-48
2023/04/05 03:59:57;;;;;;;9.55;3.92;;;;;;;5.01;55.09;102132.00;4932869;29;20053;-48
2023/04/05 04:02:23;;;;;;;8.02;3.63;;;;;;;5.03;55.13;102132.00;4931780;29;20059;-49
2023/04/05 04:04:48;;;;;;;8.27;3.95;;;;;;;5.03;54.98;102132.00;4922590;29;20154;-48
2023/04/05 04:07:14;;;;;;;8.45;3.85;;;;;;;5.06;54.83;102126.75;4927070;29;20190;-48
2023/04/05 04:09:40;;;;;;;8.90;3.15;;;;;;;5.03;54.95;102130.25;4928236;29;20051;-49
2023/04/05 04:12:05;;;;;;;7.07;2.45;;;;;;;5.07;54.82;102138.03;4929319;29;20054;-47
2023/04/05 04:14:34;;;;;;;10.77;2.83;;;;;;;5.10;54.64;102138.84;4928429;29;20091;-48
2023/04/05 04:16:59;;;;;;;11.38;2.60;;;;;;;5.08;54.66;102135.41;4928469;29;20075;-48
2023/04/05 04:19:25;;;;;;;7.97;2.78;;;;;;;5.07;54.67;102132.81;4927507;29;20064;-48
2023/04/05 04:21:51;;;;;;;9.55;3.58;;;;;;;5.11;54.53;102137.97;4931500;29;20082;-47
2023/04/05 04:24:17;;;;;;;19.67;6.05;;;;;;;5.15;54.27;102137.06;4926668;29;20070;-48
2023/04/05 04:26:47;;;;;;;8.10;3.00;;;;;;;5.11;54.54;102130.16;4928706;29;20070;-47
2023/04/05 04:29:15;;;;;;;7.90;3.67;;;;;;;5.08;54.53;102145.84;4924548;29;20056;-47
2023/04/05 04:31:45;;;;;;;12.00;3.83;;;;;;;5.06;54.95;102152.84;4931458;29;20050;-47
2023/04/05 04:34:13;;;;;;;6.18;2.38;;;;;;;5.04;54.75;102146.78;4920610;29;20054;-48
2023/04/05 04:36:41;;;;;;;6.45;2.83;;;;;;;5.03;54.86;102151.09;4926933;29;20059;-50
2023/04/05 04:39:08;;;;;;;8.40;4.22;;;;;;;5.02;54.62;102144.16;4924654;29;20319;-48
2023/04/05 04:41:34;;;;;;;6.22;2.83;;;;;;;5.03;54.62;102153.72;4929054;29;20696;-48
2023/04/05 04:44:03;;;;;;;7.50;3.38;;;;;;;5.05;54.74;102153.72;4926690;29;20553;-48
2023/04/05 04:46:33;;;;;;;7.63;2.78;;;;;;;5.00;54.68;102160.72;4930387;29;20154;-48
2023/04/05 04:49:04;;;;;;;5.80;2.75;;;;;;;4.99;54.94;102165.06;4930659;29;20515;-48
2023/04/05 04:51:31;;;;;;;9.00;2.28;;;;;;;4.97;54.63;102166.84;4933648;29;20055;-49
2023/04/05 04:53:57;;;;;;;5.38;2.63;;;;;;;4.93;54.53;102164.28;4929257;29;20063;-48
2023/04/05 04:56:22;;;;;;;7.03;2.42;;;;;;;4.86;54.92;102171.31;4932775;29;20075;-47
2023/04/05 04:58:47;;;;;;;8.35;2.47;;;;;;;4.83;54.72;102168.75;4931670;29;20070;-48
2023/04/05 05:01:13;;;;;;;10.77;2.70;;;;;;;4.82;55.08;102167.03;4932708;29;20470;-48
2023/04/05 05:03:38;;;;;;;3.97;1.85;;;;;;;4.82;55.57;102162.66;4932851;29;20075;-48
2023/04/05 05:06:04;;;;;;;7.15;2.40;;;;;;;4.82;55.47;102164.41;4931687;29;20053;-48
2023/04/05 05:08:30;;;;;;;4.70;1.77;;;;;;;4.79;55.55;102156.63;4930754;28;20046;-48
2023/04/05 05:10:55;;;;;;;3.65;1.42;;;;;;;4.74;55.95;102151.47;4932239;29;20060;-48
2023/04/05 05:13:21;;;;;;;6.05;1.63;;;;;;;4.77;56.06;102156.63;4927009;29;20071;-48
2023/04/05 05:15:47;;;;;;;2.42;1.00;;;;;;;4.75;56.22;102152.31;4927748;29;20056;-48
2023/04/05 05:18:13;;;;;;;8.77;2.03;;;;;;;4.73;56.60;102152.34;4927788;29;20058;-48
2023/04/05 05:20:38;;;;;;;4.78;1.80;;;;;;;4.75;56.48;102150.56;4931168;29;20067;-48
2023/04/05 05:23:04;;;;;;;5.90;2.03;;;;;;;4.84;56.73;102155.69;4929400;29;20117;-49
2023/04/05 05:25:30;;;;;;;33.25;13.73;;;;;;;4.86;56.50;102160.88;4931721;29;20070;-48
2023/04/05 05:27:56;;;;;;;7.20;3.40;;;;;;;4.88;56.74;102170.44;4932380;29;20133;-48
2023/04/05 05:30:21;;;;;;;4.07;2.22;;;;;;;4.88;56.81;102167.81;4935182;29;20146;-48
2023/04/05 05:32:47;;;;;;;5.60;2.05;;;;;;;4.88;56.64;102162.59;4931367;29;20174;-48
2023/04/05 05:35:13;;;;;;;4.53;1.67;;;;;;;4.90;57.01;102174.75;4929164;29;20102;-48
2023/04/05 05:37:39;;;;;;;5.13;1.50;;;;;;;4.91;57.09;102163.44;4932517;29;20058;-48
2023/04/05 05:40:05;;;;;;;2.80;1.35;;;;;;;4.97;57.01;102172.06;4935439;29;20065;-48
2023/04/05 05:42:31;;;;;;;4.35;1.65;;;;;;;5.03;56.78;102171.97;4925123;29;20156;-48
2023/04/05 05:45:01;;;;;;;5.43;1.45;;;;;;;5.10;56.68;102166.72;4924555;29;20068;-47
2023/04/05 05:47:27;;;;;;;3.55;1.25;;;;;;;5.17;56.41;102168.34;4934017;29;20055;-49
2023/04/05 05:49:52;;;;;;;3.42;1.45;;;;;;;5.26;56.41;102170.84;4933024;29;20056;-48
2023/04/05 05:52:17;;;;;;;8.20;2.08;;;;;;;5.34;56.52;102162.94;4920790;29;20054;-47
2023/04/05 05:54:43;;;;;;;3.88;1.40;;;;;;;5.42;56.33;102168.91;4928819;29;20053;-48
2023/04/05 05:57:08;;;;;;;2.72;0.90;;;;;;;5.40;56.06;102165.44;4923524;29;20062;-48
2023/04/05 05:59:34;;;;;;;2.38;1.00;;;;;;;5.41;56.05;102161.94;4926678;29;20055;-49
2023/04/05 06:02:00;;;;;;;1.83;0.82;;;;;;;5.47;56.07;102156.66;4928128;29;20064;-48
2023/04/05 06:04:26;;;;;;;2.88;1.10;;;;;;;5.57;56.07;102156.53;4922651;29;20064;-48
2023/04/05 06:06:51;;;;;;;3.00;1.38;;;;;;;5.68;55.91;102159.84;4930396;29;20048;-49
2023/04/05 06:09:17;;;;;;;4.68;1.05;;;;;;;5.76;55.77;102160.59;4912510;29;20062;-48
2023/04/05 06:11:42;;;;;;;1.98;1.10;;;;;;;5.80;55.63;102159.69;4928371;29;20060;-49
2023/04/05 06:19:49;;;;;;;2.22;1.20;;;;;;;5.89;55.25;102157.78;4922314;29;20122;-49
2023/04/05 06:22:16;;;;;;;4.35;1.27;;;;;;;5.94;54.97;102159.44;4923699;29;20531;-51
2023/04/05 06:24:42;;;;;;;6.70;1.60;;;;;;;5.95;54.76;102152.50;4923904;29;20067;-48
2023/04/05 06:27:07;;;;;;;5.47;1.77;;;;;;;5.95;55.04;102152.50;4921542;29;20051;-49
2023/04/05 06:29:33;;;;;;;4.10;1.52;;;;;;;5.98;55.18;102160.25;4929041;29;20513;-49
2023/04/05 06:31:58;;;;;;;3.25;1.10;;;;;;;6.04;55.29;102162.81;4926082;29;20489;-48
2023/04/05 06:34:23;;;;;;;2.72;1.05;;;;;;;6.06;54.92;102160.16;4898796;29;20083;-49
2023/04/05 06:36:49;;;;;;;2.40;0.90;;;;;;;6.06;54.52;102157.56;4925849;29;20065;-48
2023/04/05 06:39:15;;;;;;;4.53;0.80;;;;;;;6.09;54.04;102155.78;4925660;29;20057;-47
2023/04/05 06:41:40;;;;;;;2.50;0.90;;;;;;;6.10;54.15;102152.28;4926885;29;20051;-48
2023/04/05 06:44:05;;;;;;;2.63;1.08;;;;;;;6.12;53.40;102154.00;4932007;29;20062;-49
2023/04/05 06:46:31;;;;;;;3.63;1.25;;;;;;;6.08;52.90;102156.66;4925986;29;20052;-48
2023/04/05 06:48:57;;;;;;;1.17;0.63;;;;;;;6.04;52.82;102161.97;4916446;29;20049;-48
2023/04/05 06:51:24;;;;;;;1.70;0.60;;;;;;;5.97;52.77;102162.91;4922970;29;20105;-48
2023/04/05 06:53:49;;;;;;;1.35;0.70;;;;;;;5.94;52.67;102153.38;4925650;29;20689;-49
2023/04/05 06:56:15;;;;;;;1.83;0.85;;;;;;;5.92;52.34;102153.38;4923117;29;20148;-49
2023/04/05 06:58:40;;;;;;;1.40;0.70;;;;;;;5.89;52.20;102149.97;4926832;29;20049;-48
2023/04/05 07:01:06;;;;;;;3.15;0.82;;;;;;;5.77;52.40;102148.38;4931908;29;20117;-48
2023/04/05 07:03:32;;;;;;;3.95;1.45;;;;;;;5.71;52.23;102149.34;4928378;29;20073;-48
2023/04/05 07:05:58;;;;;;;2.08;1.27;;;;;;;5.73;52.38;102147.59;4926059;29;20074;-48
2023/04/05 07:08:26;;;;;;;1.02;0.63;;;;;;;5.77;52.31;102138.81;4927649;29;20463;-48
2023/04/05 07:10:51;;;;;;;3.80;1.10;;;;;;;5.86;52.72;102137.81;4920804;29;20529;-49
2023/04/05 07:13:18;;;;;;;4.38;1.20;;;;;;;5.93;52.30;102147.28;4932339;29;20072;-47
2023/04/05 07:15:44;;;;;;;3.70;0.85;;;;;;;5.97;52.46;102140.28;4926882;29;20062;-49
2023/04/05 07:18:10;;;;;;;1.90;0.75;;;;;;;6.09;52.27;102140.09;4928386;29;20062;-48
2023/04/05 07:20:35;;;;;;;4.32;0.75;;;;;;;6.16;51.90;102135.63;4929092;29;20063;-48
2023/04/05 07:23:01;;;;;;;1.33;0.70;;;;;;;6.26;51.91;102131.13;4930252;29;20064;-48
2023/04/05 07:25:26;;;;;;;3.53;0.98;;;;;;;6.32;51.64;102136.22;4928946;29;20292;-49
2023/04/05 07:27:52;;;;;;;1.55;0.70;;;;;;;6.35;51.93;102136.16;4929875;29;20055;-48
2023/04/05 07:30:17;;;;;;;1.80;0.80;;;;;;;6.33;51.24;102143.16;4930842;29;20126;-49
2023/04/05 07:32:43;;;;;;;3.28;1.90;;;;;;;6.40;51.50;102134.34;4927239;29;20076;-48
2023/04/05 07:35:09;;;;;;;5.00;0.93;;;;;;;6.39;51.41;102132.63;4932697;29;20055;-48
2023/04/05 07:37:34;;;;;;;3.33;0.70;;;;;;;6.41;51.34;102135.19;4929275;29;20475;-48
2023/04/05 07:40:00;;;;;;;1.13;0.50;;;;;;;6.39;51.27;102131.75;4927892;29;20057;-49
2023/04/05 07:42:26;;;;;;;3.40;0.50;;;;;;;6.38;50.60;102136.13;4931084;29;20050;-49
2023/04/05 07:44:52;;;;;;;2.78;0.85;;;;;;;6.47;50.32;102134.22;4932905;29;20723;-50
2023/04/05 07:47:18;;;;;;;3.65;0.75;;;;;;;6.53;49.52;102128.88;4934606;29;20148;-50
2023/04/05 07:49:44;;;;;;;3.20;0.95;;;;;;;6.59;48.71;102130.53;4929498;29;20062;-49
2023/04/05 07:52:09;;;;;;;4.25;0.80;;;;;;;6.65;49.01;102133.88;4925691;29;20054;-48
2023/04/05 07:54:38;;;;;;;2.67;0.90;;;;;;;6.75;48.86;102142.41;4927608;29;20064;-48
2023/04/05 07:57:05;;;;;;;2.47;1.02;;;;;;;6.81;48.60;102144.06;4931570;29;20053;-48
2023/04/05 07:59:30;;;;;;;2.20;1.17;;;;;;;6.84;48.51;102138.75;4926889;29;20046;-49
2023/04/05 08:01:56;;;;;;;1.40;0.80;;;;;;;6.85;48.35;102135.25;4928553;29;20062;-48
2023/04/05 08:04:22;;;;;;;2.20;0.90;;;;;;;6.84;48.40;102144.00;4930006;29;20060;-49
2023/04/05 08:06:47;;;;;;;8.65;1.67;;;;;;;6.89;48.48;102143.91;4930916;29;20042;-50
2023/04/05 08:09:13;;;;;;;3.67;1.40;;;;;;;6.99;48.23;102146.31;4929145;29;20052;-49
2023/04/05 08:11:39;;;;;;;3.33;1.45;;;;;;;7.08;47.55;102147.00;4930914;29;20568;-49
2023/04/05 08:14:05;;;;;;;1.67;0.68;;;;;;;7.08;47.62;102141.78;4930121;29;20073;-48
2023/04/05 08:16:30;;;;;;;0.63;0.30;;;;;;;7.12;46.79;102138.19;4927904;29;20177;-48
2023/04/05 08:18:55;;;;;;;3.97;0.73;;;;;;;7.13;47.04;102139.94;4924331;29;20080;-49
2023/04/05 08:21:21;;;;;;;3.22;0.95;;;;;;;7.22;47.30;102139.72;4927870;29;20528;-48
2023/04/05 08:23:48;;;;;;;3.20;1.30;;;;;;;7.26;47.13;102133.53;4931929;29;20059;-49
2023/04/05 08:26:14;;;;;;;1.67;0.75;;;;;;;7.29;46.98;102129.97;4921341;29;20042;-51
2023/04/05 08:28:40;;;;;;;3.47;0.98;;;;;;;7.29;46.91;102130.84;4929631;29;20046;-50
2023/04/05 08:31:05;;;;;;;2.40;0.95;;;;;;;7.30;46.69;102134.31;4928296;29;20574;-49
2023/04/05 08:33:31;;;;;;;3.67;1.30;;;;;;;7.32;46.47;102124.69;4929863;29;20074;-48
2023/04/05 08:35:56;;;;;;;3.38;0.80;;;;;;;7.35;45.98;102124.63;4929765;29;20045;-49
2023/04/05 08:38:22;;;;;;;4.40;1.77;;;;;;;7.29;45.93;102124.75;4931782;29;20491;-48
2023/04/05 08:40:48;;;;;;;5.53;1.95;;;;;;;7.30;45.75;102127.34;4927527;29;20103;-48
2023/04/05 08:43:24;;;;;;;5.88;2.17;;;;;;;7.32;43.87;102130.78;4931500;29;20486;-49
2023/04/05 08:45:50;;;;;;;6.57;1.92;;;;;;;7.42;45.69;102125.34;4924656;29;20071;-49
2023/04/05 08:48:17;;;;;;;9.40;3.63;;;;;;;7.55;45.38;102128.56;4931050;29;20042;-48
2023/04/05 08:50:50;;;;;;;17.35;7.00;;;;;;;7.69;44.87;102130.84;4931363;29;20046;-49
2023/04/05 08:53:16;;;;;;;9.73;3.15;;;;;;;7.77;45.16;102126.31;4926681;29;20065;-49
2023/04/05 08:55:42;;;;;;;7.65;2.00;;;;;;;7.77;44.98;102131.53;4931600;29;20052;-48
2023/04/05 08:58:15;;;;;;;4.38;2.28;;;;;;;7.81;44.27;102133.16;4925547;29;20298;-49
2023/04/05 09:00:41;;;;;;;;;;;;;;;7.93;42.14;102126.78;4935546;29;20061;-48
2023/04/05 09:03:14;;;;;;;6.22;2.22;;;;;;;8.04;44.45;102126.53;4930464;29;20571;-50
2023/04/05 09:05:40;;;;;;;;;;;;;;;8.19;43.79;102120.00;4945546;28;20442;-49
2023/04/05 09:08:05;;;;;;;4.22;1.90;;;;;;;8.31;44.65;102124.97;4930613;29;20542;-48
2023/04/05 09:10:31;;;;;;;7.97;2.47;;;;;;;8.47;44.43;102130.66;4929613;29;20057;-50
2023/04/05 09:12:57;;;;;;;7.88;2.00;;;;;;;8.54;44.71;102127.00;4927142;29;20069;-50
2023/04/05 09:15:25;;;;;;;7.03;2.55;;;;;;;8.54;44.32;102123.50;4932731;29;20061;-49
2023/04/05 09:17:52;;;;;;;8.23;2.83;;;;;;;8.54;44.80;102121.78;4923998;29;20510;-48
2023/04/05 09:20:18;;;;;;;5.97;2.38;;;;;;;8.57;44.80;102117.31;4927960;29;20032;-49
2023/04/05 09:22:45;;;;;;;5.75;2.05;;;;;;;8.65;44.44;102116.19;4923618;29;20070;-50
2023/04/05 09:25:31;;;;;;;4.95;2.70;;;;;;;8.72;44.36;102121.28;4925314;29;20039;-48
2023/04/05 09:27:58;;;;;;;6.43;1.77;;;;;;;8.70;44.02;102118.69;4932085;29;20110;-49
2023/04/05 09:30:25;;;;;;;4.50;1.83;;;;;;;8.64;43.74;102119.72;4935625;29;20042;-56
2023/04/05 09:32:51;;;;;;;12.88;3.65;;;;;;;8.64;43.94;102116.25;4927528;29;20625;-49
2023/04/05 09:35:21;;;;;;;6.18;2.67;;;;;;;8.68;43.42;102112.66;4931319;29;20019;-48
2023/04/05 09:37:52;;;;;;;7.57;2.40;;;;;;;8.77;43.26;102116.78;4933961;29;20038;-49
2023/04/05 09:40:18;;;;;;;4.20;1.58;;;;;;;8.83;43.24;102121.84;4935990;29;20106;-49
2023/04/05 09:42:47;;;;;;;4.53;1.75;;;;;;;8.85;43.38;102110.38;4932780;29;20061;-50
2023/04/05 09:45:14;;;;;;;6.07;1.40;;;;;;;8.90;43.12;102115.53;4931732;29;20042;-49
2023/04/05 09:47:40;;;;;;;3.58;1.48;;;;;;;8.96;43.07;102114.50;4926918;29;20086;-50
2023/04/05 09:50:15;;;;;;;3.55;1.48;;;;;;;8.98;42.00;102112.69;4930095;29;20047;-48
2023/04/05 09:52:41;;;;;;;5.78;1.63;;;;;;;8.98;42.80;102108.28;4932391;29;20053;-51
2023/04/05 09:55:07;;;;;;;5.32;2.08;;;;;;;9.00;42.36;102109.09;4930395;29;20028;-51
2023/04/05 09:57:35;;;;;;;4.22;1.40;;;;;;;8.99;42.54;102103.91;4931861;29;20082;-49
2023/04/05 10:00:01;;;;;;;2.53;1.00;;;;;;;8.98;42.52;102108.28;4935120;29;20042;-49
2023/04/05 10:02:38;;;;;;;3.35;1.25;;;;;;;8.92;41.26;102112.84;4932763;29;20057;-49
2023/04/05 10:05:12;;;;;;;5.20;1.85;;;;;;;8.75;40.78;102115.97;4933846;29;20121;-49
2023/04/05 10:07:39;;;;;;;2.53;1.10;;;;;;;8.63;41.59;102109.28;4929517;29;20157;-50
2023/04/05 10:10:05;;;;;;;2.95;1.08;;;;;;;8.64;41.86;102105.75;4932444;29;20026;-49
2023/04/05 10:12:32;;;;;;;3.15;1.17;;;;;;;8.67;41.65;102113.56;4929211;29;20023;-49
2023/04/05 10:14:58;;;;;;;4.47;1.23;;;;;;;8.70;41.47;102118.69;4933101;29;20126;-49
2023/04/05 10:17:33;;;;;;;4.50;1.10;;;;;;;8.65;40.45;102115.34;4929334;29;20038;-50
2023/04/05 10:20:18;;;;;;;2.78;1.13;;;;;;;8.67;39.93;102103.06;4931300;29;20057;-49
2023/04/05 10:23:11;;;;;;;5.38;1.75;;;;;;;8.81;40.04;102100.91;4933508;29;20059;-50
2023/04/05 10:25:54;;;;;;;5.40;1.42;;;;;;;8.82;39.63;102107.00;4931599;29;20129;-49
2023/04/05 10:28:33;;;;;;;3.00;0.57;;;;;;;8.81;40.22;102111.41;4931835;29;20064;-49
2023/04/05 10:31:26;;;;;;;4.30;1.60;;;;;;;8.81;39.98;102102.66;4928862;29;20515;-49
2023/04/05 10:34:02;;;;;;;4.55;1.55;;;;;;;8.83;39.90;102093.84;4931094;29;20035;-51
2023/04/05 10:36:56;;;;;;;4.28;1.10;;;;;;;8.90;39.63;102104.16;4932175;29;20024;-50
2023/04/05 10:39:28;;;;;;;3.45;0.88;;;;;;;8.89;40.32;102099.81;4932428;29;20135;-50
2023/04/05 10:42:00;;;;;;;3.30;1.20;;;;;;;9.00;39.95;102095.09;4930416;29;20058;-49
2023/04/05 10:44:25;;;;;;;1.85;0.95;;;;;;;9.08;40.14;102092.25;4931784;29;20109;-49
2023/04/05 10:46:53;;;;;;;4.47;1.02;;;;;;;9.08;39.74;102097.50;4930925;29;20023;-51
2023/04/05 10:49:35;;;;;;;3.45;1.38;;;;;;;9.14;38.49;102103.44;4929711;29;20023;-49
2023/04/05 10:52:02;;;;;;;5.63;1.30;;;;;;;9.18;39.65;102098.97;4931825;29;20034;-51
2023/04/05 10:54:31;;;;;;;3.95;1.30;;;;;;;9.14;39.90;102090.31;4927036;29;20054;-50
2023/04/05 10:56:57;;;;;;;4.60;1.23;;;;;;;9.23;39.87;102088.31;4928858;29;20063;-50
2023/04/05 10:59:25;;;;;;;3.13;1.23;;;;;;;9.19;39.81;102099.81;4931593;29;20502;-50
2023/04/05 11:01:52;;;;;;;3.80;1.50;;;;;;;9.20;39.78;102096.28;4930192;29;20047;-48
2023/04/05 11:04:17;;;;;;;4.68;1.30;;;;;;;9.14;39.83;102092.94;4930867;29;20073;-55
2023/04/05 11:06:46;;;;;;;4.03;2.00;;;;;;;9.12;39.64;102091.25;4927813;29;20071;-49
2023/04/05 11:09:17;;;;;;;5.82;2.42;;;;;;;9.20;39.67;102085.78;4932308;29;20058;-50
2023/04/05 11:11:48;;;;;;;3.53;1.42;;;;;;;9.18;39.67;102088.47;4934335;29;20046;-50
2023/04/05 11:14:24;;;;;;;6.45;2.30;;;;;;;9.16;38.80;102090.25;4928765;29;20019;-49
2023/04/05 11:16:58;;;;;;;5.90;1.95;;;;;;;9.17;40.17;102092.00;4930711;28;20031;-48
2023/04/05 11:19:42;;;;;;;4.47;1.77;;;;;;;9.14;39.92;102087.69;4923717;29;20044;-49
2023/04/05 11:22:08;;;;;;;3.20;1.80;;;;;;;9.12;40.66;102083.38;4930505;29;20041;-49
2023/04/05 11:24:52;;;;;;;3.63;2.00;;;;;;;9.13;39.85;102082.47;4928980;29;20054;-51
2023/04/05 11:27:30;;;;;;;5.70;2.45;;;;;;;9.08;40.35;102077.38;4933395;29;20042;-49
2023/04/05 11:29:58;;;;;;;3.22;1.95;;;;;;;9.10;40.47;102072.94;4926067;29;20042;-51
2023/04/05 11:32:36;;;;;;;6.90;3.20;;;;;;;9.04;40.58;102083.59;4932482;29;20433;-50
2023/04/05 11:35:07;;;;;;;3.42;2.10;;;;;;;9.00;40.50;102085.47;4924189;29;20031;-51
2023/04/05 11:38:11;;;;;;;4.65;1.95;;;;;;;8.97;40.21;102084.72;4929175;29;20040;-49
2023/04/05 11:40:39;;;;;;;3.33;1.88;;;;;;;9.06;40.80;102081.81;4927836;29;20046;-50
2023/04/05 11:43:11;;;;;;;4.97;2.25;;;;;;;9.13;41.15;102085.09;4931773;29;20063;-49